sensor_id;sensor_type;location;lat;lon;timestamp;P1;durP1;ratioP1;P2;durP2;ratioP2
5704;SDS011;2877;48.238;11.160;2023-08-06T00:02:04;8.67;;;6.20;;
5704;SDS011;2877;48.238;11.160;2023-08-06T00:04:30;7.80;;;5.97;;
5704;SDS011;2877;48.238;11.160;2023-08-06T00:06:55;7.17;;;5.77;;
5704;SDS011;2877;48.238;11.160;2023-08-06T00:09:21;8.60;;;6.03;;
5704;SDS011;2877;48.238;11.160;2023-08-06T00:11:46;12.47;;;6.20;;
5704;SDS011;2877;48.238;11.160;2023-08-06T00:14:12;9.73;;;5.83;;
5704;SDS011;2877;48.238;11.160;2023-08-06T00:16:40;10.80;;;5.93;;
5704;SDS011;2877;48.238;11.160;2023-08-06T00:19:08;8.40;;;6.40;;
5704;SDS011;2877;48.238;11.160;2023-08-06T00:21:33;8.70;;;6.27;;
5704;SDS011;2877;48.238;11.160;2023-08-06T00:23:59;9.40;;;6.07;;
5704;SDS011;2877;48.238;11.160;2023-08-06T00:26:24;5.90;;;5.00;;
5704;SDS011;2877;48.238;11.160;2023-08-06T00:28:50;7.60;;;5.93;;
5704;SDS011;2877;48.238;11.160;2023-08-06T00:31:15;7.27;;;5.80;;
5704;SDS011;2877;48.238;11.160;2023-08-06T00:33:41;6.87;;;5.57;;
5704;SDS011;2877;48.238;11.160;2023-08-06T00:36:06;6.50;;;5.33;;
5704;SDS011;2877;48.238;11.160;2023-08-06T00:38:32;12.63;;;6.53;;
5704;SDS011;2877;48.238;11.160;2023-08-06T00:40:57;5.90;;;5.30;;
5704;SDS011;2877;48.238;11.160;2023-08-06T00:43:23;5.70;;;5.07;;
5704;SDS011;2877;48.238;11.160;2023-08-06T00:45:48;8.07;;;5.63;;
5704;SDS011;2877;48.238;11.160;2023-08-06T00:48:14;6.63;;;5.37;;
5704;SDS011;2877;48.238;11.160;2023-08-06T00:50:40;6.37;;;5.40;;
5704;SDS011;2877;48.238;11.160;2023-08-06T00:53:06;7.27;;;5.67;;
5704;SDS011;2877;48.238;11.160;2023-08-06T00:55:32;6.43;;;5.37;;
5704;SDS011;2877;48.238;11.160;2023-08-06T00:57:58;6.97;;;5.90;;
5704;SDS011;2877;48.238;11.160;2023-08-06T01:00:24;6.80;;;6.10;;
5704;SDS011;2877;48.238;11.160;2023-08-06T01:02:50;6.90;;;6.07;;
5704;SDS011;2877;48.238;11.160;2023-08-06T01:05:16;6.93;;;6.23;;
5704;SDS011;2877;48.238;11.160;2023-08-06T01:07:46;6.97;;;6.10;;
5704;SDS011;2877;48.238;11.160;2023-08-06T01:10:57;7.50;;;6.17;;
5704;SDS011;2877;48.238;11.160;2023-08-06T01:13:45;9.20;;;6.20;;
5704;SDS011;2877;48.238;11.160;2023-08-06T01:16:17;11.10;;;6.40;;
5704;SDS011;2877;48.238;11.160;2023-08-06T01:18:46;8.70;;;6.90;;
5704;SDS011;2877;48.238;11.160;2023-08-06T01:21:14;6.53;;;5.93;;
5704;SDS011;2877;48.238;11.160;2023-08-06T01:23:40;8.07;;;6.37;;
5704;SDS011;2877;48.238;11.160;2023-08-06T01:29:10;8.73;;;6.63;;
5704;SDS011;2877;48.238;11.160;2023-08-06T01:31:44;17.30;;;6.90;;
5704;SDS011;2877;48.238;11.160;2023-08-06T01:34:22;8.73;;;7.10;;
5704;SDS011;2877;48.238;11.160;2023-08-06T01:36:50;8.60;;;6.70;;
5704;SDS011;2877;48.238;11.160;2023-08-06T01:39:15;7.80;;;6.87;;
5704;SDS011;2877;48.238;11.160;2023-08-06T01:41:41;8.47;;;6.60;;
5704;SDS011;2877;48.238;11.160;2023-08-06T01:44:07;8.03;;;6.23;;
5704;SDS011;2877;48.238;11.160;2023-08-06T01:46:32;7.63;;;6.13;;
5704;SDS011;2877;48.238;11.160;2023-08-06T01:48:58;8.07;;;5.50;;
5704;SDS011;2877;48.238;11.160;2023-08-06T01:51:23;6.07;;;5.47;;
5704;SDS011;2877;48.238;11.160;2023-08-06T01:53:49;8.23;;;5.63;;
5704;SDS011;2877;48.238;11.160;2023-08-06T01:56:15;6.53;;;4.80;;
5704;SDS011;2877;48.238;11.160;2023-08-06T01:58:40;6.40;;;4.30;;
5704;SDS011;2877;48.238;11.160;2023-08-06T02:01:06;4.40;;;4.00;;
5704;SDS011;2877;48.238;11.160;2023-08-06T02:03:31;5.13;;;4.47;;
5704;SDS011;2877;48.238;11.160;2023-08-06T02:05:57;5.50;;;4.33;;
5704;SDS011;2877;48.238;11.160;2023-08-06T02:08:22;5.63;;;4.60;;
5704;SDS011;2877;48.238;11.160;2023-08-06T02:10:48;6.73;;;4.40;;
5704;SDS011;2877;48.238;11.160;2023-08-06T02:13:13;4.70;;;4.30;;
5704;SDS011;2877;48.238;11.160;2023-08-06T02:15:43;4.90;;;4.50;;
5704;SDS011;2877;48.238;11.160;2023-08-06T02:18:09;5.13;;;4.30;;
5704;SDS011;2877;48.238;11.160;2023-08-06T02:20:35;10.97;;;4.67;;
5704;SDS011;2877;48.238;11.160;2023-08-06T02:23:01;9.13;;;4.50;;
5704;SDS011;2877;48.238;11.160;2023-08-06T02:25:26;10.33;;;4.20;;
5704;SDS011;2877;48.238;11.160;2023-08-06T02:27:52;4.47;;;4.03;;
5704;SDS011;2877;48.238;11.160;2023-08-06T02:30:17;4.50;;;4.07;;
5704;SDS011;2877;48.238;11.160;2023-08-06T02:32:43;4.13;;;3.80;;
5704;SDS011;2877;48.238;11.160;2023-08-06T02:35:09;5.50;;;3.83;;
5704;SDS011;2877;48.238;11.160;2023-08-06T02:37:34;4.40;;;4.00;;
5704;SDS011;2877;48.238;11.160;2023-08-06T02:40:00;5.57;;;3.97;;
5704;SDS011;2877;48.238;11.160;2023-08-06T02:42:26;4.47;;;3.80;;
5704;SDS011;2877;48.238;11.160;2023-08-06T02:44:52;8.50;;;3.80;;
5704;SDS011;2877;48.238;11.160;2023-08-06T02:47:20;5.30;;;3.70;;
5704;SDS011;2877;48.238;11.160;2023-08-06T02:49:45;4.60;;;4.20;;
5704;SDS011;2877;48.238;11.160;2023-08-06T02:52:11;4.00;;;3.67;;
5704;SDS011;2877;48.238;11.160;2023-08-06T02:54:37;4.23;;;3.83;;
5704;SDS011;2877;48.238;11.160;2023-08-06T02:57:03;4.73;;;4.17;;
5704;SDS011;2877;48.238;11.160;2023-08-06T02:59:29;7.70;;;3.70;;
5704;SDS011;2877;48.238;11.160;2023-08-06T03:01:55;4.03;;;3.63;;
5704;SDS011;2877;48.238;11.160;2023-08-06T03:04:20;9.10;;;4.07;;
5704;SDS011;2877;48.238;11.160;2023-08-06T03:06:46;3.97;;;3.67;;
5704;SDS011;2877;48.238;11.160;2023-08-06T03:09:12;4.10;;;3.80;;
5704;SDS011;2877;48.238;11.160;2023-08-06T03:11:37;4.13;;;3.73;;
5704;SDS011;2877;48.238;11.160;2023-08-06T03:14:03;3.80;;;3.47;;
5704;SDS011;2877;48.238;11.160;2023-08-06T03:16:28;4.50;;;3.57;;
5704;SDS011;2877;48.238;11.160;2023-08-06T03:18:55;4.27;;;3.87;;
5704;SDS011;2877;48.238;11.160;2023-08-06T03:21:20;4.83;;;4.30;;
5704;SDS011;2877;48.238;11.160;2023-08-06T03:23:49;4.20;;;3.80;;
5704;SDS011;2877;48.238;11.160;2023-08-06T03:26:14;5.13;;;3.53;;
5704;SDS011;2877;48.238;11.160;2023-08-06T03:28:40;4.30;;;3.90;;
5704;SDS011;2877;48.238;11.160;2023-08-06T03:31:05;5.70;;;3.50;;
5704;SDS011;2877;48.238;11.160;2023-08-06T03:33:31;5.00;;;3.63;;
5704;SDS011;2877;48.238;11.160;2023-08-06T03:35:57;4.00;;;3.60;;
5704;SDS011;2877;48.238;11.160;2023-08-06T03:38:22;4.57;;;3.43;;
5704;SDS011;2877;48.238;11.160;2023-08-06T03:40:48;4.20;;;3.80;;
5704;SDS011;2877;48.238;11.160;2023-08-06T03:43:14;3.87;;;3.47;;
5704;SDS011;2877;48.238;11.160;2023-08-06T03:45:40;3.90;;;3.50;;
5704;SDS011;2877;48.238;11.160;2023-08-06T03:48:06;4.33;;;3.40;;
5704;SDS011;2877;48.238;11.160;2023-08-06T03:50:32;7.07;;;3.50;;
5704;SDS011;2877;48.238;11.160;2023-08-06T03:52:58;7.00;;;4.03;;
5704;SDS011;2877;48.238;11.160;2023-08-06T03:55:23;4.17;;;3.20;;
5704;SDS011;2877;48.238;11.160;2023-08-06T03:57:49;3.57;;;3.27;;
5704;SDS011;2877;48.238;11.160;2023-08-06T04:00:14;3.60;;;3.30;;
5704;SDS011;2877;48.238;11.160;2023-08-06T04:02:40;3.77;;;3.47;;
5704;SDS011;2877;48.238;11.160;2023-08-06T04:05:06;3.40;;;3.20;;
5704;SDS011;2877;48.238;11.160;2023-08-06T04:07:32;3.73;;;3.33;;
5704;SDS011;2877;48.238;11.160;2023-08-06T04:09:58;2.97;;;2.77;;
5704;SDS011;2877;48.238;11.160;2023-08-06T04:12:25;3.50;;;3.20;;
5704;SDS011;2877;48.238;11.160;2023-08-06T04:14:51;4.13;;;3.20;;
5704;SDS011;2877;48.238;11.160;2023-08-06T04:17:17;3.17;;;2.87;;
5704;SDS011;2877;48.238;11.160;2023-08-06T04:19:45;4.30;;;3.03;;
5704;SDS011;2877;48.238;11.160;2023-08-06T04:22:18;7.30;;;3.33;;
5704;SDS011;2877;48.238;11.160;2023-08-06T04:24:44;3.13;;;2.63;;
5704;SDS011;2877;48.238;11.160;2023-08-06T04:27:10;3.80;;;3.40;;
5704;SDS011;2877;48.238;11.160;2023-08-06T04:29:36;2.97;;;2.77;;
5704;SDS011;2877;48.238;11.160;2023-08-06T04:32:03;2.90;;;2.43;;
5704;SDS011;2877;48.238;11.160;2023-08-06T04:34:33;3.00;;;2.50;;
5704;SDS011;2877;48.238;11.160;2023-08-06T04:37:00;4.67;;;3.17;;
5704;SDS011;2877;48.238;11.160;2023-08-06T04:39:26;3.17;;;2.87;;
5704;SDS011;2877;48.238;11.160;2023-08-06T04:41:51;2.70;;;2.50;;
5704;SDS011;2877;48.238;11.160;2023-08-06T04:44:17;3.00;;;2.80;;
5704;SDS011;2877;48.238;11.160;2023-08-06T04:46:43;3.30;;;3.00;;
5704;SDS011;2877;48.238;11.160;2023-08-06T04:49:08;5.57;;;3.00;;
5704;SDS011;2877;48.238;11.160;2023-08-06T04:51:34;4.37;;;3.27;;
5704;SDS011;2877;48.238;11.160;2023-08-06T04:54:00;2.60;;;2.40;;
5704;SDS011;2877;48.238;11.160;2023-08-06T04:56:25;2.63;;;2.43;;
5704;SDS011;2877;48.238;11.160;2023-08-06T04:58:52;3.73;;;2.10;;
5704;SDS011;2877;48.238;11.160;2023-08-06T05:01:17;7.80;;;2.20;;
5704;SDS011;2877;48.238;11.160;2023-08-06T05:03:43;4.60;;;2.80;;
5704;SDS011;2877;48.238;11.160;2023-08-06T05:06:09;4.20;;;2.53;;
5704;SDS011;2877;48.238;11.160;2023-08-06T05:08:35;5.20;;;2.80;;
5704;SDS011;2877;48.238;11.160;2023-08-06T05:11:01;2.93;;;2.63;;
5704;SDS011;2877;48.238;11.160;2023-08-06T05:13:27;2.60;;;2.40;;
5704;SDS011;2877;48.238;11.160;2023-08-06T05:15:55;2.57;;;2.37;;
5704;SDS011;2877;48.238;11.160;2023-08-06T05:18:21;2.93;;;2.57;;
5704;SDS011;2877;48.238;11.160;2023-08-06T05:20:47;2.53;;;2.37;;
5704;SDS011;2877;48.238;11.160;2023-08-06T05:23:13;6.47;;;3.17;;
5704;SDS011;2877;48.238;11.160;2023-08-06T05:25:39;3.10;;;2.47;;
5704;SDS011;2877;48.238;11.160;2023-08-06T05:28:04;2.93;;;2.73;;
5704;SDS011;2877;48.238;11.160;2023-08-06T05:30:30;4.40;;;2.50;;
5704;SDS011;2877;48.238;11.160;2023-08-06T05:32:56;3.00;;;2.80;;
5704;SDS011;2877;48.238;11.160;2023-08-06T05:35:21;4.70;;;2.50;;
5704;SDS011;2877;48.238;11.160;2023-08-06T05:37:47;4.00;;;2.50;;
5704;SDS011;2877;48.238;11.160;2023-08-06T05:40:13;3.50;;;2.73;;
5704;SDS011;2877;48.238;11.160;2023-08-06T05:42:39;2.90;;;2.20;;
5704;SDS011;2877;48.238;11.160;2023-08-06T05:45:05;3.13;;;2.83;;
5704;SDS011;2877;48.238;11.160;2023-08-06T05:47:32;2.53;;;2.33;;
5704;SDS011;2877;48.238;11.160;2023-08-06T05:49:57;2.33;;;2.13;;
5704;SDS011;2877;48.238;11.160;2023-08-06T05:52:23;2.60;;;2.40;;
5704;SDS011;2877;48.238;11.160;2023-08-06T05:54:49;4.27;;;2.47;;
5704;SDS011;2877;48.238;11.160;2023-08-06T05:57:14;2.27;;;2.07;;
5704;SDS011;2877;48.238;11.160;2023-08-06T05:59:40;2.43;;;2.13;;
5704;SDS011;2877;48.238;11.160;2023-08-06T06:02:06;2.40;;;2.20;;
5704;SDS011;2877;48.238;11.160;2023-08-06T06:04:31;3.30;;;1.70;;
5704;SDS011;2877;48.238;11.160;2023-08-06T06:06:57;1.80;;;1.70;;
5704;SDS011;2877;48.238;11.160;2023-08-06T06:09:22;2.13;;;2.03;;
5704;SDS011;2877;48.238;11.160;2023-08-06T06:11:48;2.03;;;1.83;;
5704;SDS011;2877;48.238;11.160;2023-08-06T06:14:15;1.90;;;1.70;;
5704;SDS011;2877;48.238;11.160;2023-08-06T06:16:44;1.87;;;1.77;;
5704;SDS011;2877;48.238;11.160;2023-08-06T06:19:10;1.63;;;1.53;;
5704;SDS011;2877;48.238;11.160;2023-08-06T06:21:36;1.80;;;1.70;;
5704;SDS011;2877;48.238;11.160;2023-08-06T06:24:02;4.50;;;1.93;;
5704;SDS011;2877;48.238;11.160;2023-08-06T06:26:29;2.50;;;1.93;;
5704;SDS011;2877;48.238;11.160;2023-08-06T06:28:55;1.53;;;1.43;;
5704;SDS011;2877;48.238;11.160;2023-08-06T06:31:21;2.20;;;1.30;;
5704;SDS011;2877;48.238;11.160;2023-08-06T06:33:46;1.20;;;1.10;;
5704;SDS011;2877;48.238;11.160;2023-08-06T06:36:12;1.63;;;1.53;;
5704;SDS011;2877;48.238;11.160;2023-08-06T06:38:37;1.37;;;1.27;;
5704;SDS011;2877;48.238;11.160;2023-08-06T06:41:03;1.80;;;1.00;;
5704;SDS011;2877;48.238;11.160;2023-08-06T06:43:29;1.43;;;1.23;;
5704;SDS011;2877;48.238;11.160;2023-08-06T06:45:58;2.63;;;1.40;;
5704;SDS011;2877;48.238;11.160;2023-08-06T06:48:28;4.53;;;1.27;;
5704;SDS011;2877;48.238;11.160;2023-08-06T06:50:54;1.20;;;1.10;;
5704;SDS011;2877;48.238;11.160;2023-08-06T06:53:20;2.10;;;1.40;;
5704;SDS011;2877;48.238;11.160;2023-08-06T06:55:52;2.10;;;1.73;;
5704;SDS011;2877;48.238;11.160;2023-08-06T06:58:20;1.27;;;1.17;;
5704;SDS011;2877;48.238;11.160;2023-08-06T07:00:46;1.50;;;1.40;;
5704;SDS011;2877;48.238;11.160;2023-08-06T07:03:13;2.50;;;1.80;;
5704;SDS011;2877;48.238;11.160;2023-08-06T07:05:43;2.50;;;1.70;;
5704;SDS011;2877;48.238;11.160;2023-08-06T07:08:09;1.43;;;1.33;;
5704;SDS011;2877;48.238;11.160;2023-08-06T07:10:34;3.47;;;1.80;;
5704;SDS011;2877;48.238;11.160;2023-08-06T07:13:00;2.40;;;1.70;;
5704;SDS011;2877;48.238;11.160;2023-08-06T07:15:25;1.70;;;1.43;;
5704;SDS011;2877;48.238;11.160;2023-08-06T07:17:51;1.73;;;1.40;;
5704;SDS011;2877;48.238;11.160;2023-08-06T07:20:17;1.77;;;1.43;;
5704;SDS011;2877;48.238;11.160;2023-08-06T07:22:43;1.50;;;1.30;;
5704;SDS011;2877;48.238;11.160;2023-08-06T07:25:09;2.00;;;1.40;;
5704;SDS011;2877;48.238;11.160;2023-08-06T07:27:34;1.27;;;1.20;;
5704;SDS011;2877;48.238;11.160;2023-08-06T07:30:00;2.80;;;1.10;;
5704;SDS011;2877;48.238;11.160;2023-08-06T07:32:26;1.77;;;1.20;;
5704;SDS011;2877;48.238;11.160;2023-08-06T07:34:52;1.90;;;1.33;;
5704;SDS011;2877;48.238;11.160;2023-08-06T07:37:22;0.90;;;0.90;;
5704;SDS011;2877;48.238;11.160;2023-08-06T07:39:48;1.40;;;1.03;;
5704;SDS011;2877;48.238;11.160;2023-08-06T07:42:13;0.90;;;0.90;;
5704;SDS011;2877;48.238;11.160;2023-08-06T07:44:39;2.87;;;0.90;;
5704;SDS011;2877;48.238;11.160;2023-08-06T07:47:05;1.60;;;0.87;;
5704;SDS011;2877;48.238;11.160;2023-08-06T07:49:30;3.57;;;1.10;;
5704;SDS011;2877;48.238;11.160;2023-08-06T07:51:56;0.90;;;0.90;;
5704;SDS011;2877;48.238;11.160;2023-08-06T07:54:21;1.67;;;0.90;;
5704;SDS011;2877;48.238;11.160;2023-08-06T07:56:48;1.23;;;1.13;;
5704;SDS011;2877;48.238;11.160;2023-08-06T07:59:14;1.20;;;0.90;;
5704;SDS011;2877;48.238;11.160;2023-08-06T08:01:39;1.47;;;1.07;;
5704;SDS011;2877;48.238;11.160;2023-08-06T08:04:05;1.03;;;0.80;;
5704;SDS011;2877;48.238;11.160;2023-08-06T08:06:30;3.87;;;1.03;;
5704;SDS011;2877;48.238;11.160;2023-08-06T08:08:56;3.50;;;0.97;;
5704;SDS011;2877;48.238;11.160;2023-08-06T08:11:21;2.83;;;0.90;;
5704;SDS011;2877;48.238;11.160;2023-08-06T08:13:47;1.23;;;1.03;;
5704;SDS011;2877;48.238;11.160;2023-08-06T08:16:12;1.20;;;0.70;;
5704;SDS011;2877;48.238;11.160;2023-08-06T08:18:38;0.80;;;0.63;;
5704;SDS011;2877;48.238;11.160;2023-08-06T08:21:04;0.70;;;0.70;;
5704;SDS011;2877;48.238;11.160;2023-08-06T08:23:29;0.70;;;0.60;;
5704;SDS011;2877;48.238;11.160;2023-08-06T08:25:56;1.77;;;0.67;;
5704;SDS011;2877;48.238;11.160;2023-08-06T08:28:21;0.70;;;0.70;;
5704;SDS011;2877;48.238;11.160;2023-08-06T08:30:47;1.83;;;1.00;;
5704;SDS011;2877;48.238;11.160;2023-08-06T08:33:13;0.80;;;0.77;;
5704;SDS011;2877;48.238;11.160;2023-08-06T08:35:38;0.90;;;0.77;;
5704;SDS011;2877;48.238;11.160;2023-08-06T08:38:05;0.83;;;0.70;;
5704;SDS011;2877;48.238;11.160;2023-08-06T08:40:31;0.80;;;0.80;;
5704;SDS011;2877;48.238;11.160;2023-08-06T08:43:01;0.60;;;0.57;;
5704;SDS011;2877;48.238;11.160;2023-08-06T08:45:28;0.73;;;0.60;;
5704;SDS011;2877;48.238;11.160;2023-08-06T08:47:54;0.77;;;0.70;;
5704;SDS011;2877;48.238;11.160;2023-08-06T08:50:20;1.27;;;0.70;;
5704;SDS011;2877;48.238;11.160;2023-08-06T08:52:46;0.70;;;0.70;;
5704;SDS011;2877;48.238;11.160;2023-08-06T08:55:15;1.37;;;0.50;;
5704;SDS011;2877;48.238;11.160;2023-08-06T08:57:41;1.77;;;0.53;;
5704;SDS011;2877;48.238;11.160;2023-08-06T09:00:07;0.67;;;0.60;;
5704;SDS011;2877;48.238;11.160;2023-08-06T09:02:33;0.60;;;0.60;;
5704;SDS011;2877;48.238;11.160;2023-08-06T09:04:59;0.90;;;0.60;;
5704;SDS011;2877;48.238;11.160;2023-08-06T09:07:27;1.73;;;1.63;;
5704;SDS011;2877;48.238;11.160;2023-08-06T09:09:56;1.10;;;0.60;;
5704;SDS011;2877;48.238;11.160;2023-08-06T09:12:24;0.83;;;0.50;;
5704;SDS011;2877;48.238;11.160;2023-08-06T09:14:50;0.50;;;0.40;;
5704;SDS011;2877;48.238;11.160;2023-08-06T09:17:16;0.70;;;0.50;;
5704;SDS011;2877;48.238;11.160;2023-08-06T09:19:44;0.60;;;0.50;;
5704;SDS011;2877;48.238;11.160;2023-08-06T09:22:12;0.80;;;0.50;;
5704;SDS011;2877;48.238;11.160;2023-08-06T09:24:39;0.40;;;0.40;;
5704;SDS011;2877;48.238;11.160;2023-08-06T09:27:10;8.63;;;1.60;;
5704;SDS011;2877;48.238;11.160;2023-08-06T09:29:40;0.40;;;0.40;;
5704;SDS011;2877;48.238;11.160;2023-08-06T09:32:10;0.70;;;0.40;;
5704;SDS011;2877;48.238;11.160;2023-08-06T09:34:38;0.40;;;0.40;;
5704;SDS011;2877;48.238;11.160;2023-08-06T09:37:04;0.70;;;0.43;;
5704;SDS011;2877;48.238;11.160;2023-08-06T09:39:30;0.40;;;0.40;;
5704;SDS011;2877;48.238;11.160;2023-08-06T09:41:56;2.67;;;0.47;;
5704;SDS011;2877;48.238;11.160;2023-08-06T09:44:24;0.60;;;0.50;;
5704;SDS011;2877;48.238;11.160;2023-08-06T09:46:54;2.30;;;0.57;;
5704;SDS011;2877;48.238;11.160;2023-08-06T09:49:24;2.10;;;0.50;;
5704;SDS011;2877;48.238;11.160;2023-08-06T09:51:51;0.50;;;0.50;;
5704;SDS011;2877;48.238;11.160;2023-08-06T09:54:20;2.43;;;0.40;;
5704;SDS011;2877;48.238;11.160;2023-08-06T09:56:47;0.47;;;0.47;;
5704;SDS011;2877;48.238;11.160;2023-08-06T09:59:13;0.50;;;0.50;;
5704;SDS011;2877;48.238;11.160;2023-08-06T10:01:41;0.40;;;0.40;;
5704;SDS011;2877;48.238;11.160;2023-08-06T10:04:06;0.40;;;0.40;;
5704;SDS011;2877;48.238;11.160;2023-08-06T10:06:34;0.40;;;0.40;;
5704;SDS011;2877;48.238;11.160;2023-08-06T10:09:04;0.53;;;0.40;;
5704;SDS011;2877;48.238;11.160;2023-08-06T10:11:30;3.80;;;0.50;;
5704;SDS011;2877;48.238;11.160;2023-08-06T10:14:04;1.40;;;0.60;;
5704;SDS011;2877;48.238;11.160;2023-08-06T10:16:46;0.40;;;0.40;;
5704;SDS011;2877;48.238;11.160;2023-08-06T10:19:13;0.40;;;0.40;;
5704;SDS011;2877;48.238;11.160;2023-08-06T10:21:41;0.60;;;0.40;;
5704;SDS011;2877;48.238;11.160;2023-08-06T10:24:07;0.60;;;0.30;;
5704;SDS011;2877;48.238;11.160;2023-08-06T10:26:36;1.77;;;0.70;;
5704;SDS011;2877;48.238;11.160;2023-08-06T10:29:20;0.53;;;0.40;;
5704;SDS011;2877;48.238;11.160;2023-08-06T10:32:03;0.40;;;0.40;;
5704;SDS011;2877;48.238;11.160;2023-08-06T10:37:23;1.57;;;0.40;;
5704;SDS011;2877;48.238;11.160;2023-08-06T10:39:50;5.43;;;0.40;;
5704;SDS011;2877;48.238;11.160;2023-08-06T10:42:26;0.40;;;0.40;;
5704;SDS011;2877;48.238;11.160;2023-08-06T10:47:42;0.30;;;0.30;;
5704;SDS011;2877;48.238;11.160;2023-08-06T10:50:11;0.33;;;0.33;;
5704;SDS011;2877;48.238;11.160;2023-08-06T10:52:38;0.30;;;0.30;;
5704;SDS011;2877;48.238;11.160;2023-08-06T10:55:04;0.77;;;0.43;;
5704;SDS011;2877;48.238;11.160;2023-08-06T10:57:30;0.50;;;0.40;;
5704;SDS011;2877;48.238;11.160;2023-08-06T10:59:56;1.07;;;0.40;;
5704;SDS011;2877;48.238;11.160;2023-08-06T11:02:21;1.33;;;0.50;;
5704;SDS011;2877;48.238;11.160;2023-08-06T11:04:47;2.20;;;0.50;;
5704;SDS011;2877;48.238;11.160;2023-08-06T11:07:13;0.70;;;0.43;;
5704;SDS011;2877;48.238;11.160;2023-08-06T11:09:39;0.97;;;0.40;;
5704;SDS011;2877;48.238;11.160;2023-08-06T11:12:10;0.50;;;0.50;;
5704;SDS011;2877;48.238;11.160;2023-08-06T11:14:36;1.73;;;0.40;;
5704;SDS011;2877;48.238;11.160;2023-08-06T11:17:03;2.20;;;0.40;;
5704;SDS011;2877;48.238;11.160;2023-08-06T11:19:30;0.50;;;0.40;;
5704;SDS011;2877;48.238;11.160;2023-08-06T11:21:56;0.40;;;0.40;;
5704;SDS011;2877;48.238;11.160;2023-08-06T11:24:23;2.50;;;0.50;;
5704;SDS011;2877;48.238;11.160;2023-08-06T11:26:49;0.40;;;0.40;;
5704;SDS011;2877;48.238;11.160;2023-08-06T11:29:15;0.50;;;0.40;;
5704;SDS011;2877;48.238;11.160;2023-08-06T11:31:41;0.40;;;0.40;;
5704;SDS011;2877;48.238;11.160;2023-08-06T11:34:06;1.03;;;0.47;;
5704;SDS011;2877;48.238;11.160;2023-08-06T11:36:32;0.60;;;0.40;;
5704;SDS011;2877;48.238;11.160;2023-08-06T11:39:01;0.43;;;0.40;;
5704;SDS011;2877;48.238;11.160;2023-08-06T11:41:31;0.57;;;0.37;;
5704;SDS011;2877;48.238;11.160;2023-08-06T11:43:58;1.23;;;0.40;;
5704;SDS011;2877;48.238;11.160;2023-08-06T11:46:24;0.40;;;0.40;;
5704;SDS011;2877;48.238;11.160;2023-08-06T11:48:54;1.53;;;0.40;;
5704;SDS011;2877;48.238;11.160;2023-08-06T11:51:24;0.40;;;0.40;;
5704;SDS011;2877;48.238;11.160;2023-08-06T11:53:59;0.60;;;0.50;;
5704;SDS011;2877;48.238;11.160;2023-08-06T11:56:25;0.70;;;0.40;;
5704;SDS011;2877;48.238;11.160;2023-08-06T11:58:52;0.40;;;0.40;;
5704;SDS011;2877;48.238;11.160;2023-08-06T12:01:19;0.50;;;0.50;;
5704;SDS011;2877;48.238;11.160;2023-08-06T12:03:45;3.27;;;0.40;;
5704;SDS011;2877;48.238;11.160;2023-08-06T12:06:10;1.33;;;0.30;;
5704;SDS011;2877;48.238;11.160;2023-08-06T12:08:36;1.27;;;0.40;;
5704;SDS011;2877;48.238;11.160;2023-08-06T12:11:03;0.40;;;0.40;;
5704;SDS011;2877;48.238;11.160;2023-08-06T12:13:29;0.70;;;0.40;;
5704;SDS011;2877;48.238;11.160;2023-08-06T12:15:54;0.63;;;0.40;;
5704;SDS011;2877;48.238;11.160;2023-08-06T12:18:22;0.40;;;0.40;;
5704;SDS011;2877;48.238;11.160;2023-08-06T12:20:47;0.40;;;0.40;;
5704;SDS011;2877;48.238;11.160;2023-08-06T12:23:13;0.40;;;0.40;;
5704;SDS011;2877;48.238;11.160;2023-08-06T12:25:40;0.30;;;0.30;;
5704;SDS011;2877;48.238;11.160;2023-08-06T12:28:06;0.40;;;0.40;;
5704;SDS011;2877;48.238;11.160;2023-08-06T12:30:34;0.40;;;0.40;;
5704;SDS011;2877;48.238;11.160;2023-08-06T12:33:00;1.27;;;0.50;;
5704;SDS011;2877;48.238;11.160;2023-08-06T12:35:25;0.40;;;0.40;;
5704;SDS011;2877;48.238;11.160;2023-08-06T12:37:51;0.40;;;0.40;;
5704;SDS011;2877;48.238;11.160;2023-08-06T12:40:19;0.60;;;0.40;;
5704;SDS011;2877;48.238;11.160;2023-08-06T12:42:52;0.50;;;0.40;;
5704;SDS011;2877;48.238;11.160;2023-08-06T12:45:18;0.40;;;0.40;;
5704;SDS011;2877;48.238;11.160;2023-08-06T12:47:46;0.30;;;0.30;;
5704;SDS011;2877;48.238;11.160;2023-08-06T12:50:12;0.40;;;0.40;;
5704;SDS011;2877;48.238;11.160;2023-08-06T12:52:37;0.40;;;0.40;;
5704;SDS011;2877;48.238;11.160;2023-08-06T12:55:03;0.60;;;0.50;;
5704;SDS011;2877;48.238;11.160;2023-08-06T12:57:29;0.40;;;0.40;;
5704;SDS011;2877;48.238;11.160;2023-08-06T12:59:54;0.70;;;0.40;;
5704;SDS011;2877;48.238;11.160;2023-08-06T13:02:20;0.40;;;0.40;;
5704;SDS011;2877;48.238;11.160;2023-08-06T13:04:46;2.73;;;0.70;;
5704;SDS011;2877;48.238;11.160;2023-08-06T13:07:11;0.40;;;0.40;;
5704;SDS011;2877;48.238;11.160;2023-08-06T13:09:37;0.40;;;0.40;;
5704;SDS011;2877;48.238;11.160;2023-08-06T13:12:02;0.40;;;0.40;;
5704;SDS011;2877;48.238;11.160;2023-08-06T13:14:30;0.70;;;0.40;;
5704;SDS011;2877;48.238;11.160;2023-08-06T13:16:56;0.53;;;0.40;;
5704;SDS011;2877;48.238;11.160;2023-08-06T13:19:22;0.40;;;0.40;;
5704;SDS011;2877;48.238;11.160;2023-08-06T13:24:14;0.67;;;0.40;;
5704;SDS011;2877;48.238;11.160;2023-08-06T13:26:40;0.77;;;0.40;;
5704;SDS011;2877;48.238;11.160;2023-08-06T13:29:05;0.40;;;0.40;;
5704;SDS011;2877;48.238;11.160;2023-08-06T13:31:32;0.40;;;0.40;;
5704;SDS011;2877;48.238;11.160;2023-08-06T13:33:57;0.43;;;0.43;;
5704;SDS011;2877;48.238;11.160;2023-08-06T13:36:27;0.40;;;0.40;;
5704;SDS011;2877;48.238;11.160;2023-08-06T13:38:52;0.40;;;0.40;;
5704;SDS011;2877;48.238;11.160;2023-08-06T13:41:18;0.50;;;0.40;;
5704;SDS011;2877;48.238;11.160;2023-08-06T13:43:44;1.60;;;0.40;;
5704;SDS011;2877;48.238;11.160;2023-08-06T13:46:10;0.50;;;0.40;;
5704;SDS011;2877;48.238;11.160;2023-08-06T13:48:41;0.43;;;0.40;;
5704;SDS011;2877;48.238;11.160;2023-08-06T13:51:07;1.23;;;0.40;;
5704;SDS011;2877;48.238;11.160;2023-08-06T13:53:32;0.40;;;0.40;;
5704;SDS011;2877;48.238;11.160;2023-08-06T13:55:58;0.40;;;0.40;;
5704;SDS011;2877;48.238;11.160;2023-08-06T13:58:23;0.40;;;0.40;;
5704;SDS011;2877;48.238;11.160;2023-08-06T14:00:50;1.20;;;0.47;;
5704;SDS011;2877;48.238;11.160;2023-08-06T14:03:18;0.97;;;0.40;;
5704;SDS011;2877;48.238;11.160;2023-08-06T14:05:44;0.60;;;0.60;;
5704;SDS011;2877;48.238;11.160;2023-08-06T14:08:09;0.70;;;0.60;;
5704;SDS011;2877;48.238;11.160;2023-08-06T14:10:35;2.27;;;0.90;;
5704;SDS011;2877;48.238;11.160;2023-08-06T14:13:00;3.83;;;0.83;;
5704;SDS011;2877;48.238;11.160;2023-08-06T14:15:26;1.20;;;1.10;;
5704;SDS011;2877;48.238;11.160;2023-08-06T14:17:51;2.03;;;0.60;;
5704;SDS011;2877;48.238;11.160;2023-08-06T14:20:17;0.67;;;0.60;;
5704;SDS011;2877;48.238;11.160;2023-08-06T14:22:42;0.97;;;0.50;;
5704;SDS011;2877;48.238;11.160;2023-08-06T14:25:08;0.60;;;0.60;;
5704;SDS011;2877;48.238;11.160;2023-08-06T14:27:34;1.93;;;0.50;;
5704;SDS011;2877;48.238;11.160;2023-08-06T14:30:00;1.70;;;0.70;;
5704;SDS011;2877;48.238;11.160;2023-08-06T14:32:25;0.67;;;0.60;;
5704;SDS011;2877;48.238;11.160;2023-08-06T14:34:51;2.40;;;0.60;;
5704;SDS011;2877;48.238;11.160;2023-08-06T14:37:17;0.40;;;0.40;;
5704;SDS011;2877;48.238;11.160;2023-08-06T14:39:42;1.33;;;0.50;;
5704;SDS011;2877;48.238;11.160;2023-08-06T14:42:08;0.60;;;0.60;;
5704;SDS011;2877;48.238;11.160;2023-08-06T14:44:34;0.60;;;0.50;;
5704;SDS011;2877;48.238;11.160;2023-08-06T14:46:59;0.50;;;0.50;;
5704;SDS011;2877;48.238;11.160;2023-08-06T14:49:25;1.27;;;0.50;;
5704;SDS011;2877;48.238;11.160;2023-08-06T14:51:50;0.40;;;0.40;;
5704;SDS011;2877;48.238;11.160;2023-08-06T14:54:16;0.50;;;0.50;;
5704;SDS011;2877;48.238;11.160;2023-08-06T14:56:41;0.50;;;0.50;;
5704;SDS011;2877;48.238;11.160;2023-08-06T14:59:07;0.60;;;0.60;;
5704;SDS011;2877;48.238;11.160;2023-08-06T15:01:32;0.60;;;0.50;;
5704;SDS011;2877;48.238;11.160;2023-08-06T15:03:58;0.60;;;0.60;;
5704;SDS011;2877;48.238;11.160;2023-08-06T15:06:24;0.50;;;0.50;;
5704;SDS011;2877;48.238;11.160;2023-08-06T15:08:49;4.33;;;0.50;;